Time,TemperatureF,DewpointF,PressureIn,WindDirection,WindDirectionDegrees,WindSpeedMPH,WindSpeedGustMPH,Humidity,HourlyPrecipIn,Conditions,Clouds,dailyrainin,SoftwareType,DateUTC
2014-01-19 00:01:00,19.2,11.1,29.87,NE,56,0.0,4.0,70,0.00,,,0.00,meteohub,2014-01-19 05:01:00,
2014-01-19 00:02:00,19.2,11.1,29.87,NE,56,0.0,4.0,70,0.00,,,0.00,meteohub,2014-01-19 05:02:00,
2014-01-19 00:04:00,19.2,11.1,29.87,NE,56,0.0,4.0,70,0.00,,,0.00,meteohub,2014-01-19 05:04:00,
2014-01-19 00:09:00,19.2,11.1,29.87,NE,56,0.0,4.0,70,0.00,,,0.00,meteohub,2014-01-19 05:09:00,
2014-01-19 00:14:00,19.2,11.1,29.87,NE,56,0.0,0.0,70,0.00,,,0.00,meteohub,2014-01-19 05:14:00,
2014-01-19 00:19:00,19.2,11.1,29.87,NE,56,0.0,0.0,70,0.00,,,0.00,meteohub,2014-01-19 05:19:00,
2014-01-19 00:24:00,19.4,11.5,29.84,NE,56,0.0,0.0,71,0.00,,,0.00,meteohub,2014-01-19 05:24:00,
2014-01-19 00:29:00,19.4,11.5,29.84,NE,56,3.0,4.0,71,0.00,,,0.00,meteohub,2014-01-19 05:29:00,
2014-01-19 00:34:00,19.4,11.5,29.84,NE,56,0.0,4.0,71,0.00,,,0.00,meteohub,2014-01-19 05:34:00,
2014-01-19 00:40:00,19.4,11.8,29.84,NE,56,0.0,4.0,72,0.00,,,0.00,meteohub,2014-01-19 05:40:00,
2014-01-19 00:45:00,19.6,11.7,29.84,NE,56,0.0,4.0,71,0.00,,,0.00,meteohub,2014-01-19 05:45:00,
2014-01-19 00:50:00,19.6,11.7,29.84,NE,56,0.0,3.0,71,0.00,,,0.00,meteohub,2014-01-19 05:50:00,
2014-01-19 00:55:00,19.6,12.0,29.84,NE,56,0.0,0.0,72,0.00,,,0.00,meteohub,2014-01-19 05:55:00,
2014-01-19 01:00:00,19.6,12.0,29.84,NE,56,0.0,3.0,72,0.00,,,0.00,meteohub,2014-01-19 06:00:00,
2014-01-19 01:05:00,19.6,12.0,29.84,NE,56,2.0,3.0,72,0.00,,,0.00,meteohub,2014-01-19 06:05:00,
2014-01-19 01:10:00,19.6,12.0,29.84,NE,56,0.0,3.0,72,0.00,,,0.00,meteohub,2014-01-19 06:10:00,
2014-01-19 01:15:00,19.6,12.0,29.84,NE,56,0.0,3.0,72,0.00,,,0.00,meteohub,2014-01-19 06:15:00,
2014-01-19 01:20:00,19.6,12.0,29.84,NE,56,0.0,3.0,72,0.00,,,0.00,meteohub,2014-01-19 06:20:00,
2014-01-19 01:25:00,19.8,12.2,29.84,NE,56,0.0,3.0,72,0.00,,,0.00,meteohub,2014-01-19 06:25:00,
2014-01-19 01:30:00,19.8,12.6,29.84,NE,56,0.0,3.0,73,0.00,,,0.00,meteohub,2014-01-19 06:30:00,
2014-01-19 01:35:00,19.9,12.7,29.84,NE,56,0.0,3.0,73,0.00,,,0.00,meteohub,2014-01-19 06:35:00,
2014-01-19 01:40:00,19.9,12.7,29.81,NE,56,0.0,0.0,73,0.00,,,0.00,meteohub,2014-01-19 06:40:00,
2014-01-19 01:45:00,20.1,12.9,29.81,NE,56,0.0,0.0,73,0.00,,,0.00,meteohub,2014-01-19 06:45:00,
2014-01-19 01:50:00,20.1,12.9,29.81,NE,56,0.0,0.0,73,0.00,,,0.00,meteohub,2014-01-19 06:50:00,
2014-01-19 01:55:00,20.1,12.9,29.81,NE,56,0.0,0.0,73,0.00,,,0.00,meteohub,2014-01-19 06:55:00,
2014-01-19 02:00:00,20.1,13.1,29.81,NE,56,0.0,0.0,74,0.00,,,0.00,meteohub,2014-01-19 07:00:00,
2014-01-19 02:05:00,20.1,13.1,29.81,NE,56,0.0,0.0,74,0.00,,,0.00,meteohub,2014-01-19 07:05:00,
2014-01-19 02:10:00,20.3,13.3,29.81,NE,56,0.0,0.0,74,0.00,,,0.00,meteohub,2014-01-19 07:10:00,
2014-01-19 02:15:00,20.3,13.3,29.81,NE,56,0.0,0.0,74,0.00,,,0.00,meteohub,2014-01-19 07:15:00,
2014-01-19 02:20:00,20.3,13.3,29.81,NE,56,0.0,0.0,74,0.00,,,0.00,meteohub,2014-01-19 07:20:00,
2014-01-19 02:25:00,20.3,13.3,29.81,NE,56,0.0,0.0,74,0.00,,,0.00,meteohub,2014-01-19 07:25:00,
2014-01-19 02:30:00,20.3,13.3,29.81,NE,56,0.0,0.0,74,0.00,,,0.00,meteohub,2014-01-19 07:30:00,
2014-01-19 02:35:00,20.3,13.3,29.81,NE,56,0.0,0.0,74,0.00,,,0.00,meteohub,2014-01-19 07:35:00,
2014-01-19 02:40:00,20.3,13.6,29.81,NE,56,0.0,0.0,75,0.00,,,0.00,meteohub,2014-01-19 07:40:00,
2014-01-19 02:45:00,20.5,13.8,29.81,NE,56,0.0,0.0,75,0.00,,,0.00,meteohub,2014-01-19 07:45:00,
2014-01-19 02:50:00,20.5,13.8,29.81,NE,56,0.0,0.0,75,0.00,,,0.00,meteohub,2014-01-19 07:50:00,
2014-01-19 02:55:00,20.7,14.0,29.81,NE,56,0.0,0.0,75,0.00,,,0.00,meteohub,2014-01-19 07:55:00,
2014-01-19 03:00:00,20.7,14.0,29.81,NE,56,0.0,0.0,75,0.00,,,0.00,meteohub,2014-01-19 08:00:00,
2014-01-19 03:05:00,20.7,14.0,29.81,NE,56,0.0,0.0,75,0.00,,,0.00,meteohub,2014-01-19 08:05:00,
2014-01-19 03:10:00,20.8,14.2,29.81,NE,56,0.0,0.0,75,0.00,,,0.00,meteohub,2014-01-19 08:10:00,
2014-01-19 03:15:00,20.8,14.2,29.81,NE,56,0.0,0.0,75,0.00,,,0.00,meteohub,2014-01-19 08:15:00,
2014-01-19 03:20:00,20.8,14.2,29.81,NE,56,0.0,0.0,75,0.00,,,0.00,meteohub,2014-01-19 08:20:00,
2014-01-19 03:25:00,20.8,14.2,29.81,NE,56,0.0,0.0,75,0.00,,,0.00,meteohub,2014-01-19 08:25:00,
2014-01-19 03:30:00,20.8,14.5,29.81,NE,56,0.0,0.0,76,0.00,,,0.00,meteohub,2014-01-19 08:30:00,
2014-01-19 03:36:00,20.8,14.5,29.81,NE,56,0.0,0.0,76,0.00,,,0.00,meteohub,2014-01-19 08:36:00,
2014-01-19 03:41:00,20.8,14.5,29.81,NE,56,0.0,0.0,76,0.00,,,0.00,meteohub,2014-01-19 08:41:00,
2014-01-19 03:46:00,20.8,14.5,29.81,NE,56,0.0,0.0,76,0.00,,,0.00,meteohub,2014-01-19 08:46:00,
2014-01-19 03:51:00,21.0,14.7,29.81,NE,56,0.0,0.0,76,0.00,,,0.00,meteohub,2014-01-19 08:51:00,
2014-01-19 03:56:00,21.0,14.7,29.81,NE,56,0.0,0.0,76,0.00,,,0.00,meteohub,2014-01-19 08:56:00,
2014-01-19 04:01:00,21.0,14.7,29.81,NE,56,0.0,0.0,76,0.00,,,0.00,meteohub,2014-01-19 09:01:00,
2014-01-19 04:06:00,21.0,14.7,29.81,NE,56,0.0,0.0,76,0.00,,,0.00,meteohub,2014-01-19 09:06:00,
2014-01-19 04:11:00,21.2,14.9,29.81,NE,56,0.0,0.0,76,0.00,,,0.00,meteohub,2014-01-19 09:11:00,
2014-01-19 04:16:00,21.2,14.9,29.81,NE,56,0.0,0.0,76,0.00,,,0.00,meteohub,2014-01-19 09:16:00,
2014-01-19 04:21:00,21.2,14.9,29.81,NE,56,0.0,0.0,76,0.00,,,0.00,meteohub,2014-01-19 09:21:00,
2014-01-19 04:26:00,21.0,14.7,29.78,NE,56,0.0,0.0,76,0.00,,,0.00,meteohub,2014-01-19 09:26:00,
2014-01-19 04:31:00,21.0,14.7,29.78,NE,56,0.0,0.0,76,0.00,,,0.00,meteohub,2014-01-19 09:31:00,
2014-01-19 04:36:00,21.0,14.7,29.78,NE,56,0.0,0.0,76,0.00,,,0.00,meteohub,2014-01-19 09:36:00,
2014-01-19 04:41:00,21.0,14.7,29.78,NE,56,0.0,0.0,76,0.00,,,0.00,meteohub,2014-01-19 09:41:00,
2014-01-19 04:46:00,21.0,14.7,29.78,NE,56,0.0,0.0,76,0.00,,,0.00,meteohub,2014-01-19 09:46:00,
2014-01-19 04:51:00,21.0,14.7,29.78,NE,56,0.0,0.0,76,0.00,,,0.00,meteohub,2014-01-19 09:51:00,
2014-01-19 04:56:00,20.8,14.5,29.78,NE,56,0.0,0.0,76,0.00,,,0.00,meteohub,2014-01-19 09:56:00,
2014-01-19 05:01:00,21.0,14.7,29.78,NE,56,0.0,0.0,76,0.00,,,0.00,meteohub,2014-01-19 10:01:00,
2014-01-19 05:06:00,21.0,14.7,29.78,NE,56,0.0,0.0,76,0.00,,,0.00,meteohub,2014-01-19 10:06:00,
2014-01-19 05:11:00,20.8,14.5,29.78,NE,56,0.0,0.0,76,0.00,,,0.00,meteohub,2014-01-19 10:11:00,
2014-01-19 05:16:00,20.8,14.5,29.78,NE,56,0.0,0.0,76,0.00,,,0.00,meteohub,2014-01-19 10:16:00,
2014-01-19 05:21:00,20.8,14.5,29.78,NE,56,0.0,0.0,76,0.00,,,0.00,meteohub,2014-01-19 10:21:00,
2014-01-19 05:26:00,20.8,14.5,29.78,NE,56,0.0,0.0,76,0.00,,,0.00,meteohub,2014-01-19 10:26:00,
2014-01-19 05:31:00,21.0,14.7,29.78,NE,56,0.0,0.0,76,0.00,,,0.00,meteohub,2014-01-19 10:31:00,
2014-01-19 05:36:00,21.0,14.7,29.78,NE,56,0.0,0.0,76,0.00,,,0.00,meteohub,2014-01-19 10:36:00,
2014-01-19 05:41:00,21.2,14.9,29.75,NE,56,0.0,3.0,76,0.00,,,0.00,meteohub,2014-01-19 10:41:00,
2014-01-19 05:46:00,21.2,14.9,29.75,ESE,109,0.0,3.0,76,0.00,,,0.00,meteohub,2014-01-19 10:46:00,
2014-01-19 05:51:00,21.2,14.9,29.75,ESE,109,0.0,4.0,76,0.00,,,0.00,meteohub,2014-01-19 10:51:00,
2014-01-19 05:56:00,21.2,14.9,29.78,ESE,109,0.0,4.0,76,0.00,,,0.00,meteohub,2014-01-19 10:56:00,
2014-01-19 06:02:00,21.2,14.9,29.78,ESE,109,0.0,0.0,76,0.00,,,0.00,meteohub,2014-01-19 11:02:00,
2014-01-19 06:07:00,21.2,14.9,29.78,ESE,109,0.0,0.0,76,0.00,,,0.00,meteohub,2014-01-19 11:07:00,
2014-01-19 06:12:00,21.2,14.9,29.78,ESE,109,0.0,0.0,76,0.00,,,0.00,meteohub,2014-01-19 11:12:00,
2014-01-19 06:17:00,21.2,15.1,29.78,ESE,109,0.0,0.0,77,0.00,,,0.00,meteohub,2014-01-19 11:17:00,
2014-01-19 06:22:00,21.4,15.1,29.78,ESE,109,0.0,0.0,76,0.00,,,0.00,meteohub,2014-01-19 11:22:00,
2014-01-19 06:27:00,21.2,15.1,29.78,ESE,109,0.0,0.0,77,0.00,,,0.00,meteohub,2014-01-19 11:27:00,
2014-01-19 06:32:00,21.2,15.1,29.78,ESE,109,0.0,0.0,77,0.00,,,0.00,meteohub,2014-01-19 11:32:00,
2014-01-19 06:37:00,21.2,15.1,29.78,ESE,109,0.0,0.0,77,0.00,,,0.00,meteohub,2014-01-19 11:37:00,
2014-01-19 06:42:00,21.2,15.1,29.78,ESE,109,0.0,0.0,77,0.00,,,0.00,meteohub,2014-01-19 11:42:00,
2014-01-19 06:47:00,21.2,15.1,29.78,ESE,109,0.0,0.0,77,0.00,,,0.00,meteohub,2014-01-19 11:47:00,
2014-01-19 06:52:00,21.2,15.1,29.78,ESE,109,0.0,0.0,77,0.00,,,0.00,meteohub,2014-01-19 11:52:00,
2014-01-19 06:57:00,21.2,15.1,29.78,ESE,109,0.0,3.0,77,0.00,,,0.00,meteohub,2014-01-19 11:57:00,
2014-01-19 07:02:00,21.4,15.1,29.78,ESE,109,0.0,3.0,76,0.00,,,0.00,meteohub,2014-01-19 12:02:00,
2014-01-19 07:07:00,21.4,15.1,29.78,ESE,109,0.0,3.0,76,0.00,,,0.00,meteohub,2014-01-19 12:07:00,
2014-01-19 07:12:00,21.4,15.1,29.81,ESE,109,0.0,0.0,76,0.00,,,0.00,meteohub,2014-01-19 12:12:00,
2014-01-19 07:17:00,21.6,15.4,29.81,ESE,109,0.0,0.0,77,0.00,,,0.00,meteohub,2014-01-19 12:17:00,
2014-01-19 07:22:00,21.6,15.4,29.81,ESE,109,0.0,0.0,77,0.00,,,0.00,meteohub,2014-01-19 12:22:00,
2014-01-19 07:27:00,21.7,15.6,29.81,ESE,109,0.0,0.0,77,0.00,,,0.00,meteohub,2014-01-19 12:27:00,
2014-01-19 07:32:00,21.9,15.8,29.81,ESE,109,0.0,0.0,77,0.00,,,0.00,meteohub,2014-01-19 12:32:00,
2014-01-19 07:37:00,21.9,15.8,29.81,ESE,109,0.0,0.0,77,0.00,,,0.00,meteohub,2014-01-19 12:37:00,
2014-01-19 07:42:00,22.1,16.0,29.81,ESE,109,0.0,0.0,77,0.00,,,0.00,meteohub,2014-01-19 12:42:00,
2014-01-19 07:47:00,22.1,16.0,29.81,ESE,109,0.0,0.0,77,0.00,,,0.00,meteohub,2014-01-19 12:47:00,
2014-01-19 07:52:00,22.1,16.0,29.81,ESE,109,0.0,0.0,77,0.00,,,0.00,meteohub,2014-01-19 12:52:00,
2014-01-19 07:57:00,22.1,16.0,29.81,ESE,109,0.0,0.0,77,0.00,,,0.00,meteohub,2014-01-19 12:57:00,
2014-01-19 08:02:00,22.3,16.2,29.81,ESE,109,0.0,0.0,77,0.00,,,0.00,meteohub,2014-01-19 13:02:00,
2014-01-19 08:07:00,22.6,16.5,29.81,ESE,109,0.0,0.0,77,0.00,,,0.00,meteohub,2014-01-19 13:07:00,
2014-01-19 08:12:00,22.8,17.1,29.81,ESE,109,0.0,0.0,78,0.00,,,0.00,meteohub,2014-01-19 13:12:00,
2014-01-19 08:17:00,22.8,17.1,29.81,ESE,109,0.0,0.0,78,0.00,,,0.00,meteohub,2014-01-19 13:17:00,
2014-01-19 08:22:00,23.0,17.2,29.81,ESE,109,0.0,0.0,78,0.00,,,0.00,meteohub,2014-01-19 13:22:00,
2014-01-19 08:27:00,23.2,17.4,29.81,ESE,109,0.0,0.0,78,0.00,,,0.00,meteohub,2014-01-19 13:27:00,
2014-01-19 08:32:00,23.5,17.8,29.81,ESE,109,0.0,3.0,78,0.00,,,0.00,meteohub,2014-01-19 13:32:00,
2014-01-19 08:37:00,23.9,18.0,29.81,ESE,109,0.0,3.0,78,0.00,,,0.00,meteohub,2014-01-19 13:37:00,
2014-01-19 08:42:00,24.3,18.3,29.81,ESE,109,0.0,4.0,78,0.00,,,0.00,meteohub,2014-01-19 13:42:00,
2014-01-19 08:47:00,24.6,18.7,29.81,ESE,109,4.0,4.0,78,0.00,,,0.00,meteohub,2014-01-19 13:47:00,
2014-01-19 08:52:00,25.0,19.0,29.81,ESE,109,0.0,4.0,78,0.00,,,0.00,meteohub,2014-01-19 13:52:00,
2014-01-19 08:57:00,25.2,19.2,29.81,ESE,109,4.0,4.0,78,0.00,,,0.00,meteohub,2014-01-19 13:57:00,
2014-01-19 09:02:00,25.3,19.4,29.81,ESE,104,6.0,6.0,78,0.00,,,0.00,meteohub,2014-01-19 14:02:00,
2014-01-19 09:07:00,25.5,19.6,29.81,SSE,149,0.0,6.0,78,0.00,,,0.00,meteohub,2014-01-19 14:07:00,
2014-01-19 09:12:00,25.7,19.8,29.84,ESE,119,3.0,8.0,78,0.00,,,0.00,meteohub,2014-01-19 14:12:00,
2014-01-19 09:17:00,25.9,19.8,29.84,ESE,118,8.0,8.0,77,0.00,,,0.00,meteohub,2014-01-19 14:17:00,
2014-01-19 09:22:00,25.9,19.4,29.84,NE,48,3.0,8.0,76,0.00,,,0.00,meteohub,2014-01-19 14:22:00,
2014-01-19 09:27:00,26.1,19.2,29.84,SE,130,4.0,8.0,75,0.00,,,0.00,meteohub,2014-01-19 14:27:00,
2014-01-19 09:32:00,26.1,19.2,29.84,East,100,2.0,10.0,75,0.00,,,0.00,meteohub,2014-01-19 14:32:00,
2014-01-19 09:37:00,26.2,19.4,29.84,SSE,153,0.0,10.0,75,0.00,,,0.00,meteohub,2014-01-19 14:37:00,
2014-01-19 09:42:00,26.4,19.2,29.84,ESE,109,0.0,10.0,74,0.00,,,0.00,meteohub,2014-01-19 14:42:00,
2014-01-19 09:47:00,26.6,19.4,29.84,East,96,4.0,10.0,74,0.00,,,0.00,meteohub,2014-01-19 14:47:00,
2014-01-19 09:52:00,26.6,19.4,29.84,East,86,3.0,6.0,74,0.00,,,0.00,meteohub,2014-01-19 14:52:00,
2014-01-19 09:57:00,26.8,19.2,29.84,East,101,6.0,9.0,73,0.00,,,0.00,meteohub,2014-01-19 14:57:00,
2014-01-19 10:02:00,27.0,19.4,29.84,NNE,30,3.0,9.0,73,0.00,,,0.00,meteohub,2014-01-19 15:02:00,
2014-01-19 10:07:00,27.0,19.4,29.84,SSE,150,5.0,6.0,73,0.00,,,0.00,meteohub,2014-01-19 15:07:00,
2014-01-19 10:12:00,27.0,19.2,29.84,SE,129,0.0,8.0,72,0.00,,,0.00,meteohub,2014-01-19 15:12:00,
2014-01-19 10:17:00,27.1,19.0,29.84,ESE,115,6.0,8.0,71,0.00,,,0.00,meteohub,2014-01-19 15:17:00,
2014-01-19 10:22:00,27.1,18.7,29.84,ESE,110,4.0,8.0,70,0.00,,,0.00,meteohub,2014-01-19 15:22:00,
2014-01-19 10:27:00,27.3,18.9,29.84,East,99,4.0,8.0,70,0.00,,,0.00,meteohub,2014-01-19 15:27:00,
2014-01-19 10:32:00,27.5,19.0,29.84,East,101,4.0,8.0,70,0.00,,,0.00,meteohub,2014-01-19 15:32:00,
2014-01-19 10:37:00,27.7,18.9,29.84,ESE,103,6.0,8.0,69,0.00,,,0.00,meteohub,2014-01-19 15:37:00,
2014-01-19 10:42:00,27.9,19.0,29.84,East,84,5.0,8.0,69,0.00,,,0.00,meteohub,2014-01-19 15:42:00,
2014-01-19 10:47:00,28.0,18.9,29.84,ENE,74,4.0,8.0,68,0.00,,,0.00,meteohub,2014-01-19 15:47:00,
2014-01-19 10:52:00,28.0,18.9,29.84,East,84,8.0,8.0,68,0.00,,,0.00,meteohub,2014-01-19 15:52:00,
2014-01-19 10:57:00,28.2,18.7,29.84,East,95,4.0,8.0,67,0.00,,,0.00,meteohub,2014-01-19 15:57:00,
2014-01-19 11:02:00,28.4,18.5,29.84,East,98,0.0,8.0,66,0.00,,,0.00,meteohub,2014-01-19 16:02:00,
2014-01-19 11:07:00,28.8,18.9,29.84,NNE,33,10.0,10.0,66,0.00,,,0.00,meteohub,2014-01-19 16:07:00,
2014-01-19 11:12:00,28.9,18.3,29.84,North,8,6.0,10.0,64,0.00,,,0.00,meteohub,2014-01-19 16:12:00,
2014-01-19 11:17:00,28.8,17.4,29.84,ESE,103,3.0,10.0,62,0.00,,,0.00,meteohub,2014-01-19 16:17:00,
2014-01-19 11:22:00,28.9,17.6,29.84,East,79,2.0,11.0,62,0.00,,,0.00,meteohub,2014-01-19 16:22:00,
2014-01-19 11:27:00,28.9,17.6,29.84,ESE,110,5.0,11.0,62,0.00,,,0.00,meteohub,2014-01-19 16:27:00,
2014-01-19 11:32:00,28.9,17.2,29.84,ESE,123,2.0,11.0,61,0.00,,,0.00,meteohub,2014-01-19 16:32:00,
2014-01-19 11:37:00,28.9,17.2,29.84,SW,222,4.0,10.0,61,0.00,,,0.00,meteohub,2014-01-19 16:37:00,
2014-01-19 11:42:00,29.3,17.6,29.84,NE,56,4.0,10.0,61,0.00,,,0.00,meteohub,2014-01-19 16:42:00,
2014-01-19 11:47:00,29.5,17.8,29.84,ENE,73,3.0,10.0,61,0.00,,,0.00,meteohub,2014-01-19 16:47:00,
2014-01-19 11:52:00,29.5,17.2,29.84,East,101,5.0,8.0,60,0.00,,,0.00,meteohub,2014-01-19 16:52:00,
2014-01-19 11:57:00,29.5,16.5,29.84,ENE,59,7.0,8.0,58,0.00,,,0.00,meteohub,2014-01-19 16:57:00,
2014-01-19 12:02:00,29.5,16.5,29.84,ENE,64,6.0,15.0,58,0.00,,,0.00,meteohub,2014-01-19 17:02:00,
2014-01-19 12:07:00,29.5,16.5,29.84,ENE,60,4.0,15.0,58,0.00,,,0.00,meteohub,2014-01-19 17:07:00,
2014-01-19 12:12:00,30.0,17.8,29.81,East,80,4.0,11.0,60,0.00,,,0.00,meteohub,2014-01-19 17:12:00,
2014-01-19 12:17:00,30.4,17.4,29.81,NNE,30,9.0,11.0,58,0.00,,,0.00,meteohub,2014-01-19 17:17:00,
2014-01-19 12:22:00,30.7,16.9,29.81,ENE,65,11.0,11.0,56,0.00,,,0.00,meteohub,2014-01-19 17:22:00,
2014-01-19 12:27:00,30.4,15.8,29.81,ESE,122,4.0,11.0,54,0.00,,,0.00,meteohub,2014-01-19 17:27:00,
2014-01-19 12:32:00,30.6,16.0,29.81,East,85,4.0,15.0,54,0.00,,,0.00,meteohub,2014-01-19 17:32:00,
2014-01-19 12:37:00,31.1,16.3,29.81,ENE,60,8.0,15.0,54,0.00,,,0.00,meteohub,2014-01-19 17:37:00,
2014-01-19 12:42:00,31.1,16.3,29.81,SE,131,5.0,15.0,54,0.00,,,0.00,meteohub,2014-01-19 17:42:00,
2014-01-19 12:47:00,31.6,16.9,29.81,ESE,109,4.0,12.0,54,0.00,,,0.00,meteohub,2014-01-19 17:47:00,
2014-01-19 12:52:00,32.0,17.2,29.81,NE,50,8.0,12.0,54,0.00,,,0.00,meteohub,2014-01-19 17:52:00,
2014-01-19 12:57:00,31.8,16.7,29.81,ENE,66,5.0,12.0,53,0.00,,,0.00,meteohub,2014-01-19 17:57:00,
2014-01-19 13:02:00,32.2,17.1,29.81,ESE,118,7.0,13.0,53,0.00,,,0.00,meteohub,2014-01-19 18:02:00,
2014-01-19 13:07:00,32.7,18.0,29.81,NE,52,6.0,13.0,54,0.00,,,0.00,meteohub,2014-01-19 18:07:00,
2014-01-19 13:12:00,33.4,18.5,29.78,NE,41,6.0,13.0,54,0.00,,,0.00,meteohub,2014-01-19 18:12:00,
2014-01-19 13:17:00,33.6,17.8,29.78,East,82,5.0,9.0,52,0.00,,,0.00,meteohub,2014-01-19 18:17:00,
2014-01-19 13:22:00,33.4,17.2,29.78,ESE,116,4.0,9.0,51,0.00,,,0.00,meteohub,2014-01-19 18:22:00,
2014-01-19 13:27:00,33.3,17.1,29.81,NE,42,9.0,11.0,51,0.00,,,0.00,meteohub,2014-01-19 18:27:00,
2014-01-19 13:32:00,33.6,17.4,29.81,East,96,8.0,11.0,51,0.00,,,0.00,meteohub,2014-01-19 18:32:00,
2014-01-19 13:37:00,33.4,17.2,29.81,SE,124,4.0,11.0,51,0.00,,,0.00,meteohub,2014-01-19 18:37:00,
2014-01-19 13:42:00,33.3,17.1,29.78,NE,39,5.0,11.0,51,0.00,,,0.00,meteohub,2014-01-19 18:42:00,
2014-01-19 13:47:00,33.3,17.1,29.78,ENE,78,6.0,10.0,51,0.00,,,0.00,meteohub,2014-01-19 18:47:00,
2014-01-19 13:52:00,33.6,16.9,29.78,NNE,22,11.0,13.0,50,0.00,,,0.00,meteohub,2014-01-19 18:52:00,
2014-01-19 13:57:00,33.6,16.5,29.78,ENE,59,4.0,13.0,49,0.00,,,0.00,meteohub,2014-01-19 18:57:00,
2014-01-19 14:02:00,33.3,16.2,29.78,ESE,111,8.0,18.0,49,0.00,,,0.00,meteohub,2014-01-19 19:02:00,
2014-01-19 14:07:00,33.1,16.0,29.78,SSE,149,4.0,18.0,49,0.00,,,0.00,meteohub,2014-01-19 19:07:00,
2014-01-19 14:12:00,33.3,16.2,29.78,SSE,152,12.0,13.0,49,0.00,,,0.00,meteohub,2014-01-19 19:12:00,
2014-01-19 14:17:00,33.3,16.2,29.78,ESE,108,7.0,13.0,49,0.00,,,0.00,meteohub,2014-01-19 19:17:00,
2014-01-19 14:22:00,33.3,16.2,29.78,ENE,77,3.0,13.0,49,0.00,,,0.00,meteohub,2014-01-19 19:22:00,
2014-01-19 14:27:00,33.3,15.6,29.78,East,89,6.0,13.0,48,0.00,,,0.00,meteohub,2014-01-19 19:27:00,
2014-01-19 14:32:00,33.6,16.0,29.78,ESE,123,4.0,13.0,48,0.00,,,0.00,meteohub,2014-01-19 19:32:00,
2014-01-19 14:37:00,33.8,16.2,29.78,ESE,110,4.0,11.0,48,0.00,,,0.00,meteohub,2014-01-19 19:37:00,
2014-01-19 14:42:00,33.8,16.2,29.78,NE,40,10.0,11.0,48,0.00,,,0.00,meteohub,2014-01-19 19:42:00,
2014-01-19 14:47:00,33.8,16.2,29.78,NNE,32,5.0,11.0,48,0.00,,,0.00,meteohub,2014-01-19 19:47:00,
2014-01-19 14:52:00,33.8,16.7,29.78,NNW,329,8.0,11.0,49,0.00,,,0.00,meteohub,2014-01-19 19:52:00,
2014-01-19 14:57:00,33.8,16.2,29.78,ENE,57,8.0,12.0,48,0.00,,,0.00,meteohub,2014-01-19 19:57:00,
2014-01-19 15:02:00,33.8,15.6,29.78,ESE,119,6.0,12.0,47,0.00,,,0.00,meteohub,2014-01-19 20:02:00,
2014-01-19 15:07:00,34.0,16.3,29.78,East,94,6.0,12.0,48,0.00,,,0.00,meteohub,2014-01-19 20:07:00,
2014-01-19 15:12:00,34.0,16.3,29.78,West,268,4.0,10.0,48,0.00,,,0.00,meteohub,2014-01-19 20:12:00,
2014-01-19 15:17:00,34.0,16.3,29.78,ESE,115,2.0,10.0,48,0.00,,,0.00,meteohub,2014-01-19 20:17:00,
2014-01-19 15:22:00,34.2,16.5,29.78,East,96,3.0,8.0,48,0.00,,,0.00,meteohub,2014-01-19 20:22:00,
2014-01-19 15:27:00,34.3,16.2,29.78,NE,48,8.0,8.0,47,0.00,,,0.00,meteohub,2014-01-19 20:27:00,
2014-01-19 15:32:00,34.3,15.6,29.78,ENE,65,4.0,9.0,46,0.00,,,0.00,meteohub,2014-01-19 20:32:00,
2014-01-19 15:37:00,34.3,15.3,29.78,East,92,6.0,9.0,45,0.00,,,0.00,meteohub,2014-01-19 20:37:00,
2014-01-19 15:42:00,34.0,14.9,29.78,East,85,9.0,12.0,45,0.00,,,0.00,meteohub,2014-01-19 20:42:00,
2014-01-19 15:47:00,33.8,14.7,29.78,ENE,78,6.0,17.0,45,0.00,,,0.00,meteohub,2014-01-19 20:47:00,
2014-01-19 15:52:00,33.8,14.7,29.78,ENE,57,10.0,17.0,45,0.00,,,0.00,meteohub,2014-01-19 20:52:00,
2014-01-19 15:57:00,33.8,14.7,29.78,NNE,25,5.0,15.0,45,0.00,,,0.00,meteohub,2014-01-19 20:57:00,
2014-01-19 16:02:00,33.8,14.7,29.78,ESE,114,2.0,10.0,45,0.00,,,0.00,meteohub,2014-01-19 21:02:00,
2014-01-19 16:07:00,33.8,14.7,29.78,East,79,4.0,10.0,45,0.00,,,0.00,meteohub,2014-01-19 21:07:00,
2014-01-19 16:12:00,33.8,14.7,29.78,ENE,67,5.0,10.0,45,0.00,,,0.00,meteohub,2014-01-19 21:12:00,
2014-01-19 16:17:00,33.8,14.2,29.78,East,88,8.0,9.0,44,0.00,,,0.00,meteohub,2014-01-19 21:17:00,
2014-01-19 16:22:00,33.8,14.2,29.78,NNE,29,4.0,10.0,44,0.00,,,0.00,meteohub,2014-01-19 21:22:00,
2014-01-19 16:27:00,33.8,14.2,29.78,East,96,3.0,10.0,44,0.00,,,0.00,meteohub,2014-01-19 21:27:00,
2014-01-19 16:32:00,33.8,14.2,29.78,East,80,4.0,13.0,44,0.00,,,0.00,meteohub,2014-01-19 21:32:00,
2014-01-19 16:37:00,33.8,14.2,29.78,ENE,64,9.0,13.0,44,0.00,,,0.00,meteohub,2014-01-19 21:37:00,
2014-01-19 16:42:00,34.0,14.4,29.78,ESE,105,6.0,13.0,44,0.00,,,0.00,meteohub,2014-01-19 21:42:00,
2014-01-19 16:47:00,34.0,14.9,29.78,ESE,110,8.0,10.0,45,0.00,,,0.00,meteohub,2014-01-19 21:47:00,
2014-01-19 16:52:00,34.0,14.9,29.78,NNE,23,5.0,10.0,45,0.00,,,0.00,meteohub,2014-01-19 21:52:00,
2014-01-19 16:57:00,34.0,14.9,29.78,East,90,3.0,10.0,45,0.00,,,0.00,meteohub,2014-01-19 21:57:00,
2014-01-19 17:02:00,33.8,14.7,29.78,NE,48,8.0,11.0,45,0.00,,,0.00,meteohub,2014-01-19 22:02:00,
2014-01-19 17:07:00,33.8,14.7,29.78,SE,126,3.0,11.0,45,0.00,,,0.00,meteohub,2014-01-19 22:07:00,
2014-01-19 17:12:00,33.6,14.5,29.78,ESE,107,0.0,11.0,45,0.00,,,0.00,meteohub,2014-01-19 22:12:00,
2014-01-19 17:17:00,33.6,14.5,29.78,North,8,3.0,11.0,45,0.00,,,0.00,meteohub,2014-01-19 22:17:00,
2014-01-19 17:22:00,33.3,14.7,29.78,East,95,4.0,11.0,46,0.00,,,0.00,meteohub,2014-01-19 22:22:00,
2014-01-19 17:27:00,33.3,14.7,29.78,NE,44,0.0,10.0,46,0.00,,,0.00,meteohub,2014-01-19 22:27:00,
2014-01-19 17:32:00,33.1,14.5,29.78,ENE,61,4.0,6.0,46,0.00,,,0.00,meteohub,2014-01-19 22:32:00,
2014-01-19 17:37:00,33.1,15.1,29.78,East,93,0.0,6.0,47,0.00,,,0.00,meteohub,2014-01-19 22:37:00,
2014-01-19 17:42:00,32.9,14.9,29.75,NE,48,2.0,8.0,47,0.00,,,0.00,meteohub,2014-01-19 22:42:00,
2014-01-19 17:47:00,32.9,14.9,29.75,ENE,66,6.0,8.0,47,0.00,,,0.00,meteohub,2014-01-19 22:47:00,
2014-01-19 17:52:00,32.9,14.9,29.75,ENE,65,4.0,8.0,47,0.00,,,0.00,meteohub,2014-01-19 22:52:00,
2014-01-19 17:57:00,32.7,14.7,29.78,NE,39,6.0,9.0,47,0.00,,,0.00,meteohub,2014-01-19 22:57:00,
2014-01-19 18:02:00,32.9,14.9,29.78,NE,37,8.0,9.0,47,0.00,,,0.00,meteohub,2014-01-19 23:02:00,
2014-01-19 18:07:00,32.9,14.9,29.78,NE,50,4.0,9.0,47,0.00,,,0.00,meteohub,2014-01-19 23:07:00,
2014-01-19 18:12:00,32.7,14.7,29.78,ENE,70,5.0,9.0,47,0.00,,,0.00,meteohub,2014-01-19 23:12:00,
2014-01-19 18:17:00,32.7,15.3,29.78,East,82,3.0,8.0,48,0.00,,,0.00,meteohub,2014-01-19 23:17:00,
2014-01-19 18:22:00,32.5,15.1,29.78,East,96,3.0,6.0,48,0.00,,,0.00,meteohub,2014-01-19 23:22:00,
2014-01-19 18:27:00,32.5,15.1,29.78,ENE,68,4.0,6.0,48,0.00,,,0.00,meteohub,2014-01-19 23:27:00,
2014-01-19 18:32:00,32.5,15.4,29.78,South,179,4.0,6.0,49,0.00,,,0.00,meteohub,2014-01-19 23:32:00,
2014-01-19 18:37:00,32.5,15.4,29.78,NE,44,3.0,6.0,49,0.00,,,0.00,meteohub,2014-01-19 23:37:00,
2014-01-19 18:42:00,32.4,15.3,29.78,NE,39,3.0,6.0,49,0.00,,,0.00,meteohub,2014-01-19 23:42:00,
2014-01-19 18:47:00,32.4,15.3,29.78,NE,52,3.0,6.0,49,0.00,,,0.00,meteohub,2014-01-19 23:47:00,
2014-01-19 18:52:00,32.4,15.3,29.78,ENE,57,4.0,7.0,49,0.00,,,0.00,meteohub,2014-01-19 23:52:00,
2014-01-19 18:57:00,32.4,15.3,29.78,East,83,4.0,7.0,49,0.00,,,0.00,meteohub,2014-01-19 23:57:00,
2014-01-19 19:02:00,32.2,15.6,29.78,East,86,2.0,7.0,50,0.00,,,0.00,meteohub,2014-01-20 00:02:00,
2014-01-19 19:07:00,32.2,15.6,29.78,NE,45,3.0,5.0,50,0.00,,,0.00,meteohub,2014-01-20 00:07:00,
2014-01-19 19:12:00,32.4,15.3,29.78,NE,52,4.0,9.0,49,0.00,,,0.00,meteohub,2014-01-20 00:12:00,
2014-01-19 19:17:00,32.5,15.4,29.78,ESE,104,4.0,9.0,49,0.00,,,0.00,meteohub,2014-01-20 00:17:00,
2014-01-19 19:22:00,32.5,15.4,29.78,East,84,5.0,9.0,49,0.00,,,0.00,meteohub,2014-01-20 00:22:00,
2014-01-19 19:27:00,32.5,15.4,29.78,ENE,62,0.0,11.0,49,0.00,,,0.00,meteohub,2014-01-20 00:27:00,
2014-01-19 19:32:00,32.5,15.4,29.78,ENE,64,5.0,11.0,49,0.00,,,0.00,meteohub,2014-01-20 00:32:00,
2014-01-19 19:37:00,32.4,14.9,29.78,NE,35,3.0,6.0,48,0.00,,,0.00,meteohub,2014-01-20 00:37:00,
2014-01-19 19:42:00,32.5,15.1,29.78,NE,39,4.0,11.0,48,0.00,,,0.00,meteohub,2014-01-20 00:42:00,
2014-01-19 19:47:00,32.5,15.1,29.78,NE,56,3.0,11.0,48,0.00,,,0.00,meteohub,2014-01-20 00:47:00,
2014-01-19 19:52:00,32.5,15.1,29.78,NE,42,5.0,11.0,48,0.00,,,0.00,meteohub,2014-01-20 00:52:00,
2014-01-19 19:57:00,32.5,15.1,29.78,NNE,28,5.0,6.0,48,0.00,,,0.00,meteohub,2014-01-20 00:57:00,
2014-01-19 20:02:00,32.5,15.1,29.78,NE,49,6.0,8.0,48,0.00,,,0.00,meteohub,2014-01-20 01:02:00,
2014-01-19 20:07:00,32.7,15.3,29.78,ENE,68,6.0,8.0,48,0.00,,,0.00,meteohub,2014-01-20 01:07:00,
2014-01-19 20:12:00,32.5,15.1,29.78,NNE,27,3.0,8.0,48,0.00,,,0.00,meteohub,2014-01-20 01:12:00,
2014-01-19 20:17:00,32.7,15.3,29.78,NNE,18,4.0,11.0,48,0.00,,,0.00,meteohub,2014-01-20 01:17:00,
2014-01-19 20:22:00,32.7,15.6,29.78,East,89,0.0,11.0,49,0.00,,,0.00,meteohub,2014-01-20 01:22:00,
2014-01-19 20:27:00,32.7,15.6,29.75,ESE,102,0.0,11.0,49,0.00,,,0.00,meteohub,2014-01-20 01:27:00,
2014-01-19 20:32:00,32.7,15.6,29.75,ENE,77,3.0,9.0,49,0.00,,,0.00,meteohub,2014-01-20 01:32:00,
2014-01-19 20:37:00,32.5,15.4,29.75,East,84,3.0,6.0,49,0.00,,,0.00,meteohub,2014-01-20 01:37:00,
2014-01-19 20:42:00,32.7,15.6,29.75,East,87,8.0,8.0,49,0.00,,,0.00,meteohub,2014-01-20 01:42:00,
2014-01-19 20:47:00,32.9,15.8,29.75,East,81,5.0,9.0,49,0.00,,,0.00,meteohub,2014-01-20 01:47:00,
2014-01-19 20:52:00,33.1,16.0,29.75,ENE,74,3.0,9.0,49,0.00,,,0.00,meteohub,2014-01-20 01:52:00,
2014-01-19 20:57:00,33.1,16.0,29.75,NNE,13,8.0,9.0,49,0.00,,,0.00,meteohub,2014-01-20 01:57:00,
2014-01-19 21:02:00,33.1,16.0,29.75,NE,51,4.0,8.0,49,0.00,,,0.00,meteohub,2014-01-20 02:02:00,
2014-01-19 21:07:00,33.3,16.2,29.75,ENE,62,4.0,10.0,49,0.00,,,0.00,meteohub,2014-01-20 02:07:00,
2014-01-19 21:12:00,33.3,16.2,29.75,North,11,11.0,11.0,49,0.00,,,0.00,meteohub,2014-01-20 02:12:00,
2014-01-19 21:17:00,33.4,16.3,29.75,NE,54,3.0,11.0,49,0.00,,,0.00,meteohub,2014-01-20 02:17:00,
2014-01-19 21:22:00,33.4,16.3,29.75,NNE,23,6.0,11.0,49,0.00,,,0.00,meteohub,2014-01-20 02:22:00,
2014-01-19 21:27:00,33.4,16.3,29.75,ENE,71,5.0,11.0,49,0.00,,,0.00,meteohub,2014-01-20 02:27:00,
2014-01-19 21:32:00,33.4,16.3,29.75,East,96,3.0,10.0,49,0.00,,,0.00,meteohub,2014-01-20 02:32:00,
2014-01-19 21:37:00,33.4,16.3,29.75,East,92,2.0,9.0,49,0.00,,,0.00,meteohub,2014-01-20 02:37:00,
2014-01-19 21:42:00,33.4,16.3,29.72,ENE,73,3.0,9.0,49,0.00,,,0.00,meteohub,2014-01-20 02:42:00,
2014-01-19 21:47:00,33.4,16.3,29.72,NE,36,8.0,8.0,49,0.00,,,0.00,meteohub,2014-01-20 02:47:00,
2014-01-19 21:52:00,33.6,16.5,29.72,NNE,31,8.0,8.0,49,0.00,,,0.00,meteohub,2014-01-20 02:52:00,
2014-01-19 21:57:00,33.6,16.5,29.72,NNE,17,3.0,11.0,49,0.00,,,0.00,meteohub,2014-01-20 02:57:00,
2014-01-19 22:02:00,33.6,16.5,29.72,SE,126,3.0,11.0,49,0.00,,,0.00,meteohub,2014-01-20 03:02:00,
2014-01-19 22:07:00,33.4,16.3,29.72,East,96,0.0,10.0,49,0.00,,,0.00,meteohub,2014-01-20 03:07:00,
2014-01-19 22:12:00,33.4,16.3,29.72,NE,56,3.0,9.0,49,0.00,,,0.00,meteohub,2014-01-20 03:12:00,
2014-01-19 22:17:00,33.4,16.9,29.72,East,95,5.0,9.0,50,0.00,,,0.00,meteohub,2014-01-20 03:17:00,
2014-01-19 22:22:00,33.4,16.9,29.72,ENE,57,2.0,9.0,50,0.00,,,0.00,meteohub,2014-01-20 03:22:00,
2014-01-19 22:27:00,33.4,16.9,29.75,East,87,3.0,7.0,50,0.00,,,0.00,meteohub,2014-01-20 03:27:00,
2014-01-19 22:32:00,33.6,16.9,29.75,ESE,103,4.0,7.0,50,0.00,,,0.00,meteohub,2014-01-20 03:32:00,
2014-01-19 22:37:00,33.6,16.9,29.75,ENE,59,8.0,8.0,50,0.00,,,0.00,meteohub,2014-01-20 03:37:00,
2014-01-19 22:42:00,33.6,16.9,29.75,ESE,105,4.0,8.0,50,0.00,,,0.00,meteohub,2014-01-20 03:42:00,
2014-01-19 22:47:00,33.6,16.5,29.75,East,97,4.0,8.0,49,0.00,,,0.00,meteohub,2014-01-20 03:47:00,
2014-01-19 22:52:00,33.4,16.3,29.75,NE,56,4.0,8.0,49,0.00,,,0.00,meteohub,2014-01-20 03:52:00,
2014-01-19 22:57:00,33.4,16.3,29.75,NE,41,4.0,9.0,49,0.00,,,0.00,meteohub,2014-01-20 03:57:00,
2014-01-19 23:02:00,33.4,16.3,29.75,East,101,4.0,9.0,49,0.00,,,0.00,meteohub,2014-01-20 04:02:00,
2014-01-19 23:07:00,33.3,16.2,29.75,East,94,8.0,9.0,49,0.00,,,0.00,meteohub,2014-01-20 04:07:00,
2014-01-19 23:12:00,33.1,16.5,29.75,ENE,65,4.0,8.0,50,0.00,,,0.00,meteohub,2014-01-20 04:12:00,
2014-01-19 23:17:00,33.1,16.5,29.75,NE,53,8.0,8.0,50,0.00,,,0.00,meteohub,2014-01-20 04:17:00,
2014-01-19 23:22:00,33.3,16.7,29.75,ESE,114,4.0,8.0,50,0.00,,,0.00,meteohub,2014-01-20 04:22:00,
2014-01-19 23:27:00,33.3,16.7,29.75,ESE,106,3.0,8.0,50,0.00,,,0.00,meteohub,2014-01-20 04:27:00,
2014-01-19 23:32:00,33.3,16.7,29.75,ESE,105,6.0,8.0,50,0.00,,,0.00,meteohub,2014-01-20 04:32:00,
2014-01-19 23:37:00,33.4,16.9,29.75,ESE,102,0.0,8.0,50,0.00,,,0.00,meteohub,2014-01-20 04:37:00,
2014-01-19 23:42:00,33.6,16.5,29.75,East,82,3.0,9.0,49,0.00,,,0.00,meteohub,2014-01-20 04:42:00,
2014-01-19 23:47:00,33.4,16.3,29.75,ENE,57,2.0,9.0,49,0.00,,,0.00,meteohub,2014-01-20 04:47:00,
2014-01-19 23:52:00,33.3,16.2,29.75,ESE,105,5.0,9.0,49,0.00,,,0.00,meteohub,2014-01-20 04:52:00,
2014-01-19 23:57:00,33.4,16.9,29.75,NNE,32,3.0,7.0,50,0.00,,,0.00,meteohub,2014-01-20 04:57:00,